sensor_id;sensor_type;location;lat;lon;timestamp;P1;durP1;ratioP1;P2;durP2;ratioP2
17725;SDS011;8983;53.156;17.960;2023-06-26T00:00:18;7.20;;;5.40;;
17725;SDS011;8983;53.156;17.960;2023-06-26T00:02:48;6.70;;;4.63;;
17725;SDS011;8983;53.156;17.960;2023-06-26T00:05:16;6.72;;;4.30;;
17725;SDS011;8983;53.156;17.960;2023-06-26T00:07:44;5.22;;;4.20;;
17725;SDS011;8983;53.156;17.960;2023-06-26T00:10:12;5.18;;;4.20;;
17725;SDS011;8983;53.156;17.960;2023-06-26T00:12:40;4.55;;;4.03;;
17725;SDS011;8983;53.156;17.960;2023-06-26T00:15:09;5.20;;;4.30;;
17725;SDS011;8983;53.156;17.960;2023-06-26T00:17:37;5.83;;;4.40;;
17725;SDS011;8983;53.156;17.960;2023-06-26T00:20:08;4.97;;;4.15;;
17725;SDS011;8983;53.156;17.960;2023-06-26T00:22:37;5.55;;;4.53;;
17725;SDS011;8983;53.156;17.960;2023-06-26T00:25:07;5.77;;;4.57;;
17725;SDS011;8983;53.156;17.960;2023-06-26T00:27:35;7.65;;;4.75;;
17725;SDS011;8983;53.156;17.960;2023-06-26T00:30:04;6.03;;;4.38;;
17725;SDS011;8983;53.156;17.960;2023-06-26T00:32:32;8.75;;;4.55;;
17725;SDS011;8983;53.156;17.960;2023-06-26T00:35:00;6.20;;;4.68;;
17725;SDS011;8983;53.156;17.960;2023-06-26T00:37:30;6.50;;;4.38;;
17725;SDS011;8983;53.156;17.960;2023-06-26T00:39:58;7.35;;;4.53;;
17725;SDS011;8983;53.156;17.960;2023-06-26T00:42:26;6.37;;;5.03;;
17725;SDS011;8983;53.156;17.960;2023-06-26T00:44:54;6.68;;;4.75;;
17725;SDS011;8983;53.156;17.960;2023-06-26T00:47:22;6.38;;;5.13;;
17725;SDS011;8983;53.156;17.960;2023-06-26T00:49:51;7.22;;;4.97;;
17725;SDS011;8983;53.156;17.960;2023-06-26T00:52:19;9.10;;;5.60;;
17725;SDS011;8983;53.156;17.960;2023-06-26T00:54:49;6.43;;;5.10;;
17725;SDS011;8983;53.156;17.960;2023-06-26T00:57:18;7.77;;;5.43;;
17725;SDS011;8983;53.156;17.960;2023-06-26T00:59:46;5.67;;;4.53;;
17725;SDS011;8983;53.156;17.960;2023-06-26T01:02:15;5.93;;;4.77;;
17725;SDS011;8983;53.156;17.960;2023-06-26T01:04:44;6.30;;;4.77;;
17725;SDS011;8983;53.156;17.960;2023-06-26T01:07:13;5.40;;;4.47;;
17725;SDS011;8983;53.156;17.960;2023-06-26T01:09:42;7.97;;;5.17;;
17725;SDS011;8983;53.156;17.960;2023-06-26T01:12:13;5.33;;;4.10;;
17725;SDS011;8983;53.156;17.960;2023-06-26T01:14:41;9.50;;;5.27;;
17725;SDS011;8983;53.156;17.960;2023-06-26T01:17:09;6.40;;;4.97;;
17725;SDS011;8983;53.156;17.960;2023-06-26T01:19:42;6.27;;;4.87;;
17725;SDS011;8983;53.156;17.960;2023-06-26T01:22:14;6.93;;;4.93;;
17725;SDS011;8983;53.156;17.960;2023-06-26T01:24:56;5.37;;;4.80;;
17725;SDS011;8983;53.156;17.960;2023-06-26T01:31:03;13.97;;;6.47;;
17725;SDS011;8983;53.156;17.960;2023-06-26T01:33:32;12.73;;;7.10;;
17725;SDS011;8983;53.156;17.960;2023-06-26T01:36:01;12.80;;;6.27;;
17725;SDS011;8983;53.156;17.960;2023-06-26T01:38:29;14.97;;;6.37;;
17725;SDS011;8983;53.156;17.960;2023-06-26T01:40:57;12.63;;;6.90;;
17725;SDS011;8983;53.156;17.960;2023-06-26T01:43:27;10.67;;;7.40;;
17725;SDS011;8983;53.156;17.960;2023-06-26T01:46:04;9.57;;;6.57;;
17725;SDS011;8983;53.156;17.960;2023-06-26T01:48:38;12.53;;;6.70;;
17725;SDS011;8983;53.156;17.960;2023-06-26T01:51:13;10.33;;;6.53;;
17725;SDS011;8983;53.156;17.960;2023-06-26T01:53:45;10.00;;;6.80;;
17725;SDS011;8983;53.156;17.960;2023-06-26T01:56:18;12.23;;;6.40;;
17725;SDS011;8983;53.156;17.960;2023-06-26T01:58:47;13.30;;;7.10;;
17725;SDS011;8983;53.156;17.960;2023-06-26T02:01:21;8.93;;;6.20;;
17725;SDS011;8983;53.156;17.960;2023-06-26T02:03:49;6.53;;;5.70;;
17725;SDS011;8983;53.156;17.960;2023-06-26T02:06:18;9.80;;;6.03;;
17725;SDS011;8983;53.156;17.960;2023-06-26T02:08:46;9.77;;;5.70;;
17725;SDS011;8983;53.156;17.960;2023-06-26T02:11:14;6.00;;;5.07;;
17725;SDS011;8983;53.156;17.960;2023-06-26T02:13:42;7.53;;;5.50;;
17725;SDS011;8983;53.156;17.960;2023-06-26T02:16:10;7.80;;;5.03;;
17725;SDS011;8983;53.156;17.960;2023-06-26T02:18:40;7.37;;;5.33;;
17725;SDS011;8983;53.156;17.960;2023-06-26T02:21:08;6.87;;;5.40;;
17725;SDS011;8983;53.156;17.960;2023-06-26T02:23:38;7.37;;;5.33;;
17725;SDS011;8983;53.156;17.960;2023-06-26T02:26:07;6.23;;;5.00;;
17725;SDS011;8983;53.156;17.960;2023-06-26T02:28:35;5.73;;;4.93;;
17725;SDS011;8983;53.156;17.960;2023-06-26T02:31:03;8.60;;;5.10;;
17725;SDS011;8983;53.156;17.960;2023-06-26T02:33:31;6.17;;;5.23;;
17725;SDS011;8983;53.156;17.960;2023-06-26T02:36:01;8.33;;;5.53;;
17725;SDS011;8983;53.156;17.960;2023-06-26T02:38:29;5.87;;;4.60;;
17725;SDS011;8983;53.156;17.960;2023-06-26T02:40:57;7.03;;;4.70;;
17725;SDS011;8983;53.156;17.960;2023-06-26T02:43:26;6.50;;;4.67;;
17725;SDS011;8983;53.156;17.960;2023-06-26T02:45:54;6.37;;;4.87;;
17725;SDS011;8983;53.156;17.960;2023-06-26T02:48:22;5.50;;;4.37;;
17725;SDS011;8983;53.156;17.960;2023-06-26T02:50:50;6.97;;;4.90;;
17725;SDS011;8983;53.156;17.960;2023-06-26T02:53:19;6.90;;;5.00;;
17725;SDS011;8983;53.156;17.960;2023-06-26T02:55:47;5.57;;;4.53;;
17725;SDS011;8983;53.156;17.960;2023-06-26T02:58:15;7.07;;;5.30;;
17725;SDS011;8983;53.156;17.960;2023-06-26T03:00:44;5.93;;;5.00;;
17725;SDS011;8983;53.156;17.960;2023-06-26T03:03:13;7.40;;;5.50;;
17725;SDS011;8983;53.156;17.960;2023-06-26T03:05:41;7.10;;;5.30;;
17725;SDS011;8983;53.156;17.960;2023-06-26T03:08:09;6.90;;;5.73;;
17725;SDS011;8983;53.156;17.960;2023-06-26T03:10:39;5.70;;;4.70;;
17725;SDS011;8983;53.156;17.960;2023-06-26T03:13:07;9.10;;;6.10;;
17725;SDS011;8983;53.156;17.960;2023-06-26T03:15:35;7.63;;;5.00;;
17725;SDS011;8983;53.156;17.960;2023-06-26T03:18:03;7.20;;;6.07;;
17725;SDS011;8983;53.156;17.960;2023-06-26T03:20:32;8.07;;;5.60;;
17725;SDS011;8983;53.156;17.960;2023-06-26T03:23:00;12.07;;;5.17;;
17725;SDS011;8983;53.156;17.960;2023-06-26T03:25:28;8.83;;;5.20;;
17725;SDS011;8983;53.156;17.960;2023-06-26T03:27:57;9.37;;;5.43;;
17725;SDS011;8983;53.156;17.960;2023-06-26T03:30:26;6.63;;;5.10;;
17725;SDS011;8983;53.156;17.960;2023-06-26T03:32:54;9.63;;;5.50;;
17725;SDS011;8983;53.156;17.960;2023-06-26T03:35:22;9.70;;;5.93;;
17725;SDS011;8983;53.156;17.960;2023-06-26T03:37:51;6.67;;;5.23;;
17725;SDS011;8983;53.156;17.960;2023-06-26T03:40:19;6.63;;;5.67;;
17725;SDS011;8983;53.156;17.960;2023-06-26T03:42:49;8.40;;;5.53;;
17725;SDS011;8983;53.156;17.960;2023-06-26T03:45:19;9.27;;;5.53;;
17725;SDS011;8983;53.156;17.960;2023-06-26T03:47:47;7.67;;;5.23;;
17725;SDS011;8983;53.156;17.960;2023-06-26T03:50:16;7.67;;;5.17;;
17725;SDS011;8983;53.156;17.960;2023-06-26T03:52:44;8.30;;;5.40;;
17725;SDS011;8983;53.156;17.960;2023-06-26T03:55:13;6.27;;;5.03;;
17725;SDS011;8983;53.156;17.960;2023-06-26T03:57:44;5.90;;;5.30;;
17725;SDS011;8983;53.156;17.960;2023-06-26T04:00:12;5.70;;;4.93;;
17725;SDS011;8983;53.156;17.960;2023-06-26T04:02:43;6.33;;;4.70;;
17725;SDS011;8983;53.156;17.960;2023-06-26T04:05:11;5.57;;;4.73;;
17725;SDS011;8983;53.156;17.960;2023-06-26T04:07:40;6.63;;;5.27;;
17725;SDS011;8983;53.156;17.960;2023-06-26T04:10:09;6.87;;;5.30;;
17725;SDS011;8983;53.156;17.960;2023-06-26T04:12:37;6.43;;;4.97;;
17725;SDS011;8983;53.156;17.960;2023-06-26T04:15:05;7.77;;;5.70;;
17725;SDS011;8983;53.156;17.960;2023-06-26T04:17:34;7.33;;;5.60;;
17725;SDS011;8983;53.156;17.960;2023-06-26T04:20:05;6.53;;;5.03;;
17725;SDS011;8983;53.156;17.960;2023-06-26T04:22:34;7.70;;;5.90;;
17725;SDS011;8983;53.156;17.960;2023-06-26T04:25:02;7.17;;;5.43;;
17725;SDS011;8983;53.156;17.960;2023-06-26T04:27:31;6.60;;;5.17;;
17725;SDS011;8983;53.156;17.960;2023-06-26T04:30:02;6.03;;;5.43;;
17725;SDS011;8983;53.156;17.960;2023-06-26T04:32:31;8.83;;;5.93;;
17725;SDS011;8983;53.156;17.960;2023-06-26T04:34:59;8.40;;;5.70;;
17725;SDS011;8983;53.156;17.960;2023-06-26T04:37:28;8.27;;;5.60;;
17725;SDS011;8983;53.156;17.960;2023-06-26T04:39:57;7.67;;;5.83;;
17725;SDS011;8983;53.156;17.960;2023-06-26T04:42:25;8.20;;;5.90;;
17725;SDS011;8983;53.156;17.960;2023-06-26T04:44:53;7.53;;;5.70;;
17725;SDS011;8983;53.156;17.960;2023-06-26T04:47:21;7.73;;;5.50;;
17725;SDS011;8983;53.156;17.960;2023-06-26T04:49:49;7.83;;;5.50;;
17725;SDS011;8983;53.156;17.960;2023-06-26T04:52:17;8.67;;;6.10;;
17725;SDS011;8983;53.156;17.960;2023-06-26T04:54:47;7.17;;;6.03;;
17725;SDS011;8983;53.156;17.960;2023-06-26T04:57:15;9.82;;;6.43;;
17725;SDS011;8983;53.156;17.960;2023-06-26T04:59:44;7.87;;;5.90;;
17725;SDS011;8983;53.156;17.960;2023-06-26T05:02:12;7.13;;;5.67;;
17725;SDS011;8983;53.156;17.960;2023-06-26T05:04:41;8.77;;;6.47;;
17725;SDS011;8983;53.156;17.960;2023-06-26T05:07:09;7.35;;;6.10;;
17725;SDS011;8983;53.156;17.960;2023-06-26T05:09:37;7.07;;;5.97;;
17725;SDS011;8983;53.156;17.960;2023-06-26T05:12:07;7.73;;;5.67;;
17725;SDS011;8983;53.156;17.960;2023-06-26T05:14:35;7.73;;;5.83;;
17725;SDS011;8983;53.156;17.960;2023-06-26T05:17:04;6.90;;;5.60;;
17725;SDS011;8983;53.156;17.960;2023-06-26T05:19:32;6.00;;;5.25;;
17725;SDS011;8983;53.156;17.960;2023-06-26T05:22:00;7.67;;;5.80;;
17725;SDS011;8983;53.156;17.960;2023-06-26T05:24:30;7.18;;;5.60;;
17725;SDS011;8983;53.156;17.960;2023-06-26T05:26:59;7.77;;;5.37;;
17725;SDS011;8983;53.156;17.960;2023-06-26T05:29:29;6.53;;;5.43;;
17725;SDS011;8983;53.156;17.960;2023-06-26T05:31:59;7.70;;;5.20;;
17725;SDS011;8983;53.156;17.960;2023-06-26T05:34:28;7.57;;;6.13;;
17725;SDS011;8983;53.156;17.960;2023-06-26T05:36:58;10.55;;;5.50;;
17725;SDS011;8983;53.156;17.960;2023-06-26T05:39:27;9.37;;;5.97;;
17725;SDS011;8983;53.156;17.960;2023-06-26T05:41:55;7.75;;;5.45;;
17725;SDS011;8983;53.156;17.960;2023-06-26T05:44:24;7.75;;;5.55;;
17725;SDS011;8983;53.156;17.960;2023-06-26T05:46:53;8.02;;;6.00;;
17725;SDS011;8983;53.156;17.960;2023-06-26T05:49:21;9.85;;;5.55;;
17725;SDS011;8983;53.156;17.960;2023-06-26T05:51:50;8.18;;;5.43;;
17725;SDS011;8983;53.156;17.960;2023-06-26T05:54:18;7.70;;;5.22;;
17725;SDS011;8983;53.156;17.960;2023-06-26T05:56:47;8.07;;;4.95;;
17725;SDS011;8983;53.156;17.960;2023-06-26T05:59:15;5.60;;;4.80;;
17725;SDS011;8983;53.156;17.960;2023-06-26T06:01:44;6.40;;;5.60;;
17725;SDS011;8983;53.156;17.960;2023-06-26T06:04:14;6.38;;;5.22;;
17725;SDS011;8983;53.156;17.960;2023-06-26T06:06:42;9.15;;;5.43;;
17725;SDS011;8983;53.156;17.960;2023-06-26T06:09:10;5.90;;;5.18;;
17725;SDS011;8983;53.156;17.960;2023-06-26T06:11:39;11.48;;;5.43;;
17725;SDS011;8983;53.156;17.960;2023-06-26T06:14:07;7.60;;;5.18;;
17725;SDS011;8983;53.156;17.960;2023-06-26T06:16:35;6.05;;;5.13;;
17725;SDS011;8983;53.156;17.960;2023-06-26T06:19:03;8.13;;;5.43;;
17725;SDS011;8983;53.156;17.960;2023-06-26T06:21:34;5.60;;;4.53;;
17725;SDS011;8983;53.156;17.960;2023-06-26T06:24:02;7.60;;;4.82;;
17725;SDS011;8983;53.156;17.960;2023-06-26T06:26:31;5.85;;;4.78;;
17725;SDS011;8983;53.156;17.960;2023-06-26T06:28:59;9.93;;;5.57;;
17725;SDS011;8983;53.156;17.960;2023-06-26T06:31:27;5.55;;;4.82;;
17725;SDS011;8983;53.156;17.960;2023-06-26T06:33:55;5.88;;;4.97;;
17725;SDS011;8983;53.156;17.960;2023-06-26T06:36:23;6.57;;;4.60;;
17725;SDS011;8983;53.156;17.960;2023-06-26T06:38:53;7.00;;;4.90;;
17725;SDS011;8983;53.156;17.960;2023-06-26T06:41:21;5.40;;;4.78;;
17725;SDS011;8983;53.156;17.960;2023-06-26T06:43:49;6.78;;;4.95;;
17725;SDS011;8983;53.156;17.960;2023-06-26T06:46:17;5.70;;;5.20;;
17725;SDS011;8983;53.156;17.960;2023-06-26T06:48:45;8.85;;;5.63;;
17725;SDS011;8983;53.156;17.960;2023-06-26T06:51:14;6.88;;;4.60;;
17725;SDS011;8983;53.156;17.960;2023-06-26T06:53:42;5.95;;;5.00;;
17725;SDS011;8983;53.156;17.960;2023-06-26T06:56:11;8.07;;;5.57;;
17725;SDS011;8983;53.156;17.960;2023-06-26T06:58:39;9.80;;;5.10;;
17725;SDS011;8983;53.156;17.960;2023-06-26T07:01:09;7.25;;;5.10;;
17725;SDS011;8983;53.156;17.960;2023-06-26T07:03:37;6.38;;;5.32;;
17725;SDS011;8983;53.156;17.960;2023-06-26T07:06:06;5.53;;;4.75;;
17725;SDS011;8983;53.156;17.960;2023-06-26T07:08:35;6.35;;;4.72;;
17725;SDS011;8983;53.156;17.960;2023-06-26T07:11:03;7.07;;;5.50;;
17725;SDS011;8983;53.156;17.960;2023-06-26T07:13:33;8.02;;;4.93;;
17725;SDS011;8983;53.156;17.960;2023-06-26T07:16:01;6.85;;;4.72;;
17725;SDS011;8983;53.156;17.960;2023-06-26T07:18:29;6.00;;;4.80;;
17725;SDS011;8983;53.156;17.960;2023-06-26T07:20:58;6.35;;;5.07;;
17725;SDS011;8983;53.156;17.960;2023-06-26T07:23:26;5.93;;;5.25;;
17725;SDS011;8983;53.156;17.960;2023-06-26T07:25:54;7.63;;;5.32;;
17725;SDS011;8983;53.156;17.960;2023-06-26T07:28:23;7.35;;;5.28;;
17725;SDS011;8983;53.156;17.960;2023-06-26T07:30:53;7.60;;;5.35;;
17725;SDS011;8983;53.156;17.960;2023-06-26T07:33:21;7.20;;;4.95;;
17725;SDS011;8983;53.156;17.960;2023-06-26T07:35:49;6.07;;;5.10;;
17725;SDS011;8983;53.156;17.960;2023-06-26T07:38:17;9.25;;;5.35;;
17725;SDS011;8983;53.156;17.960;2023-06-26T07:40:45;7.40;;;5.43;;
17725;SDS011;8983;53.156;17.960;2023-06-26T07:43:16;6.97;;;5.10;;
17725;SDS011;8983;53.156;17.960;2023-06-26T07:45:45;6.47;;;4.80;;
17725;SDS011;8983;53.156;17.960;2023-06-26T07:48:14;7.13;;;4.53;;
17725;SDS011;8983;53.156;17.960;2023-06-26T07:50:42;5.82;;;4.93;;
17725;SDS011;8983;53.156;17.960;2023-06-26T07:53:10;6.63;;;4.75;;
17725;SDS011;8983;53.156;17.960;2023-06-26T07:55:38;6.03;;;4.95;;
17725;SDS011;8983;53.156;17.960;2023-06-26T07:58:07;7.03;;;5.03;;
17725;SDS011;8983;53.156;17.960;2023-06-26T08:00:36;10.52;;;5.43;;
17725;SDS011;8983;53.156;17.960;2023-06-26T08:03:05;5.72;;;4.43;;
17725;SDS011;8983;53.156;17.960;2023-06-26T08:05:44;5.10;;;4.60;;
17725;SDS011;8983;53.156;17.960;2023-06-26T08:08:13;6.25;;;4.55;;
17725;SDS011;8983;53.156;17.960;2023-06-26T08:10:41;11.48;;;5.32;;
17725;SDS011;8983;53.156;17.960;2023-06-26T08:13:09;7.07;;;5.00;;
17725;SDS011;8983;53.156;17.960;2023-06-26T08:15:37;7.45;;;4.97;;
17725;SDS011;8983;53.156;17.960;2023-06-26T08:18:05;7.00;;;4.63;;
17725;SDS011;8983;53.156;17.960;2023-06-26T08:20:34;5.80;;;4.85;;
17725;SDS011;8983;53.156;17.960;2023-06-26T08:23:05;6.53;;;4.97;;
17725;SDS011;8983;53.156;17.960;2023-06-26T08:25:33;7.57;;;4.85;;
17725;SDS011;8983;53.156;17.960;2023-06-26T08:28:01;7.32;;;4.88;;
17725;SDS011;8983;53.156;17.960;2023-06-26T08:30:29;6.85;;;4.68;;
17725;SDS011;8983;53.156;17.960;2023-06-26T08:32:57;7.13;;;4.97;;
17725;SDS011;8983;53.156;17.960;2023-06-26T08:35:25;8.77;;;5.05;;
17725;SDS011;8983;53.156;17.960;2023-06-26T08:37:54;5.80;;;5.15;;
17725;SDS011;8983;53.156;17.960;2023-06-26T08:40:23;5.95;;;4.45;;
17725;SDS011;8983;53.156;17.960;2023-06-26T08:42:52;8.57;;;5.10;;
17725;SDS011;8983;53.156;17.960;2023-06-26T08:45:20;8.70;;;4.47;;
17725;SDS011;8983;53.156;17.960;2023-06-26T08:47:50;4.78;;;4.28;;
17725;SDS011;8983;53.156;17.960;2023-06-26T08:50:21;7.40;;;4.90;;
17725;SDS011;8983;53.156;17.960;2023-06-26T08:52:53;6.05;;;4.72;;
17725;SDS011;8983;53.156;17.960;2023-06-26T08:55:27;6.78;;;5.13;;
17725;SDS011;8983;53.156;17.960;2023-06-26T08:57:58;7.03;;;5.03;;
17725;SDS011;8983;53.156;17.960;2023-06-26T09:00:28;6.25;;;5.07;;
17725;SDS011;8983;53.156;17.960;2023-06-26T09:02:56;6.25;;;4.35;;
17725;SDS011;8983;53.156;17.960;2023-06-26T09:05:25;5.65;;;4.55;;
17725;SDS011;8983;53.156;17.960;2023-06-26T09:07:54;8.65;;;4.85;;
17725;SDS011;8983;53.156;17.960;2023-06-26T09:10:24;5.25;;;4.75;;
17725;SDS011;8983;53.156;17.960;2023-06-26T09:12:56;6.53;;;4.75;;
17725;SDS011;8983;53.156;17.960;2023-06-26T09:15:24;7.72;;;4.80;;
17725;SDS011;8983;53.156;17.960;2023-06-26T09:17:55;9.32;;;5.47;;
17725;SDS011;8983;53.156;17.960;2023-06-26T09:20:25;7.13;;;4.50;;
17725;SDS011;8983;53.156;17.960;2023-06-26T09:22:55;6.72;;;4.50;;
17725;SDS011;8983;53.156;17.960;2023-06-26T09:25:24;5.68;;;4.55;;
17725;SDS011;8983;53.156;17.960;2023-06-26T09:27:53;6.95;;;4.68;;
17725;SDS011;8983;53.156;17.960;2023-06-26T09:30:22;7.90;;;5.03;;
17725;SDS011;8983;53.156;17.960;2023-06-26T09:32:51;6.65;;;4.85;;
17725;SDS011;8983;53.156;17.960;2023-06-26T09:35:22;7.30;;;4.88;;
17725;SDS011;8983;53.156;17.960;2023-06-26T09:37:51;14.93;;;4.85;;
17725;SDS011;8983;53.156;17.960;2023-06-26T09:40:20;6.60;;;5.13;;
17725;SDS011;8983;53.156;17.960;2023-06-26T09:42:48;5.60;;;4.38;;
17725;SDS011;8983;53.156;17.960;2023-06-26T09:45:18;7.45;;;4.20;;
17725;SDS011;8983;53.156;17.960;2023-06-26T09:47:48;6.93;;;4.40;;
17725;SDS011;8983;53.156;17.960;2023-06-26T09:50:23;5.80;;;4.47;;
17725;SDS011;8983;53.156;17.960;2023-06-26T09:52:53;4.50;;;4.05;;
17725;SDS011;8983;53.156;17.960;2023-06-26T09:55:33;8.50;;;4.28;;
17725;SDS011;8983;53.156;17.960;2023-06-26T09:58:02;6.57;;;4.68;;
17725;SDS011;8983;53.156;17.960;2023-06-26T10:00:31;5.57;;;4.20;;
17725;SDS011;8983;53.156;17.960;2023-06-26T10:03:01;4.65;;;4.18;;
17725;SDS011;8983;53.156;17.960;2023-06-26T10:05:31;4.68;;;4.28;;
17725;SDS011;8983;53.156;17.960;2023-06-26T10:07:59;5.60;;;4.22;;
17725;SDS011;8983;53.156;17.960;2023-06-26T10:10:28;5.35;;;4.53;;
17725;SDS011;8983;53.156;17.960;2023-06-26T10:12:59;4.65;;;4.18;;
17725;SDS011;8983;53.156;17.960;2023-06-26T10:15:30;5.18;;;4.68;;
17725;SDS011;8983;53.156;17.960;2023-06-26T10:17:59;5.18;;;4.07;;
17725;SDS011;8983;53.156;17.960;2023-06-26T10:20:29;4.13;;;3.72;;
17725;SDS011;8983;53.156;17.960;2023-06-26T10:22:57;4.32;;;3.92;;
17725;SDS011;8983;53.156;17.960;2023-06-26T10:25:29;5.47;;;4.40;;
17725;SDS011;8983;53.156;17.960;2023-06-26T10:27:59;7.25;;;4.10;;
17725;SDS011;8983;53.156;17.960;2023-06-26T10:30:30;4.40;;;3.80;;
17725;SDS011;8983;53.156;17.960;2023-06-26T10:33:01;7.32;;;4.50;;
17725;SDS011;8983;53.156;17.960;2023-06-26T10:35:32;6.00;;;3.90;;
17725;SDS011;8983;53.156;17.960;2023-06-26T10:38:00;5.85;;;4.28;;
17725;SDS011;8983;53.156;17.960;2023-06-26T10:40:39;6.18;;;4.13;;
17725;SDS011;8983;53.156;17.960;2023-06-26T10:43:09;4.28;;;3.58;;
17725;SDS011;8983;53.156;17.960;2023-06-26T10:45:43;5.00;;;4.15;;
17725;SDS011;8983;53.156;17.960;2023-06-26T10:48:14;5.93;;;4.35;;
17725;SDS011;8983;53.156;17.960;2023-06-26T10:50:44;7.05;;;4.40;;
17725;SDS011;8983;53.156;17.960;2023-06-26T10:53:15;4.35;;;3.95;;
17725;SDS011;8983;53.156;17.960;2023-06-26T10:55:54;6.90;;;4.20;;
17725;SDS011;8983;53.156;17.960;2023-06-26T10:58:27;4.38;;;3.97;;
17725;SDS011;8983;53.156;17.960;2023-06-26T11:04:00;4.97;;;4.03;;
17725;SDS011;8983;53.156;17.960;2023-06-26T11:06:33;5.55;;;4.07;;
17725;SDS011;8983;53.156;17.960;2023-06-26T11:09:06;4.72;;;3.92;;
17725;SDS011;8983;53.156;17.960;2023-06-26T11:14:31;4.57;;;4.03;;
17725;SDS011;8983;53.156;17.960;2023-06-26T11:17:02;6.68;;;4.18;;
17725;SDS011;8983;53.156;17.960;2023-06-26T11:19:30;3.55;;;3.22;;
17725;SDS011;8983;53.156;17.960;2023-06-26T11:22:01;3.85;;;3.55;;
17725;SDS011;8983;53.156;17.960;2023-06-26T11:24:31;6.60;;;4.13;;
17725;SDS011;8983;53.156;17.960;2023-06-26T11:27:00;4.25;;;3.70;;
17725;SDS011;8983;53.156;17.960;2023-06-26T11:29:30;5.15;;;4.50;;
17725;SDS011;8983;53.156;17.960;2023-06-26T11:32:00;4.72;;;4.07;;
17725;SDS011;8983;53.156;17.960;2023-06-26T11:34:32;5.70;;;4.22;;
17725;SDS011;8983;53.156;17.960;2023-06-26T11:37:02;5.63;;;4.18;;
17725;SDS011;8983;53.156;17.960;2023-06-26T11:39:31;4.78;;;3.75;;
17725;SDS011;8983;53.156;17.960;2023-06-26T11:41:59;5.40;;;3.92;;
17725;SDS011;8983;53.156;17.960;2023-06-26T11:44:31;5.47;;;4.05;;
17725;SDS011;8983;53.156;17.960;2023-06-26T11:46:59;4.78;;;4.07;;
17725;SDS011;8983;53.156;17.960;2023-06-26T11:49:28;4.35;;;3.95;;
17725;SDS011;8983;53.156;17.960;2023-06-26T11:51:56;5.80;;;4.32;;
17725;SDS011;8983;53.156;17.960;2023-06-26T11:54:27;5.65;;;3.95;;
17725;SDS011;8983;53.156;17.960;2023-06-26T11:56:55;6.13;;;4.15;;
17725;SDS011;8983;53.156;17.960;2023-06-26T11:59:32;6.93;;;3.60;;
17725;SDS011;8983;53.156;17.960;2023-06-26T12:02:04;6.10;;;3.55;;
17725;SDS011;8983;53.156;17.960;2023-06-26T12:04:33;3.95;;;3.58;;
17725;SDS011;8983;53.156;17.960;2023-06-26T12:07:04;4.25;;;3.78;;
17725;SDS011;8983;53.156;17.960;2023-06-26T12:09:39;4.07;;;3.55;;
17725;SDS011;8983;53.156;17.960;2023-06-26T12:12:08;4.55;;;4.03;;
17725;SDS011;8983;53.156;17.960;2023-06-26T12:14:37;3.75;;;3.13;;
17725;SDS011;8983;53.156;17.960;2023-06-26T12:17:08;3.80;;;3.50;;
17725;SDS011;8983;53.156;17.960;2023-06-26T12:19:38;7.03;;;3.75;;
17725;SDS011;8983;53.156;17.960;2023-06-26T12:22:07;3.55;;;3.10;;
17725;SDS011;8983;53.156;17.960;2023-06-26T12:24:36;3.55;;;3.20;;
17725;SDS011;8983;53.156;17.960;2023-06-26T12:27:07;3.20;;;2.90;;
17725;SDS011;8983;53.156;17.960;2023-06-26T12:29:37;5.10;;;3.47;;
17725;SDS011;8983;53.156;17.960;2023-06-26T12:32:08;3.33;;;3.03;;
17725;SDS011;8983;53.156;17.960;2023-06-26T12:34:37;4.38;;;3.28;;
17725;SDS011;8983;53.156;17.960;2023-06-26T12:37:07;3.28;;;2.90;;
17725;SDS011;8983;53.156;17.960;2023-06-26T12:39:47;3.60;;;3.30;;
17725;SDS011;8983;53.156;17.960;2023-06-26T12:42:17;3.17;;;2.83;;
17725;SDS011;8983;53.156;17.960;2023-06-26T12:44:46;6.40;;;3.53;;
17725;SDS011;8983;53.156;17.960;2023-06-26T12:47:16;4.68;;;3.40;;
17725;SDS011;8983;53.156;17.960;2023-06-26T12:49:45;3.40;;;3.10;;
17725;SDS011;8983;53.156;17.960;2023-06-26T12:52:17;5.40;;;2.90;;
17725;SDS011;8983;53.156;17.960;2023-06-26T12:54:51;3.22;;;2.92;;
17725;SDS011;8983;53.156;17.960;2023-06-26T12:57:20;3.22;;;2.90;;
17725;SDS011;8983;53.156;17.960;2023-06-26T12:59:48;3.22;;;2.90;;
17725;SDS011;8983;53.156;17.960;2023-06-26T13:02:16;3.40;;;3.10;;
17725;SDS011;8983;53.156;17.960;2023-06-26T13:04:45;5.60;;;2.90;;
17725;SDS011;8983;53.156;17.960;2023-06-26T13:07:16;3.28;;;2.97;;
17725;SDS011;8983;53.156;17.960;2023-06-26T13:09:44;4.28;;;3.22;;
17725;SDS011;8983;53.156;17.960;2023-06-26T13:12:16;3.88;;;3.00;;
17725;SDS011;8983;53.156;17.960;2023-06-26T13:14:44;4.70;;;2.97;;
17725;SDS011;8983;53.156;17.960;2023-06-26T13:17:12;3.10;;;2.80;;
17725;SDS011;8983;53.156;17.960;2023-06-26T13:19:40;4.03;;;3.22;;
17725;SDS011;8983;53.156;17.960;2023-06-26T13:22:09;3.10;;;2.80;;
17725;SDS011;8983;53.156;17.960;2023-06-26T13:24:38;3.03;;;2.70;;
17725;SDS011;8983;53.156;17.960;2023-06-26T13:27:06;4.28;;;3.20;;
17725;SDS011;8983;53.156;17.960;2023-06-26T13:29:35;3.70;;;3.20;;
17725;SDS011;8983;53.156;17.960;2023-06-26T13:32:04;3.08;;;2.78;;
17725;SDS011;8983;53.156;17.960;2023-06-26T13:34:32;3.10;;;2.80;;
17725;SDS011;8983;53.156;17.960;2023-06-26T13:37:01;3.00;;;2.70;;
17725;SDS011;8983;53.156;17.960;2023-06-26T13:39:29;3.88;;;2.70;;
17725;SDS011;8983;53.156;17.960;2023-06-26T13:41:57;3.75;;;2.72;;
17725;SDS011;8983;53.156;17.960;2023-06-26T13:44:26;4.93;;;2.90;;
17725;SDS011;8983;53.156;17.960;2023-06-26T13:47:08;4.03;;;3.05;;
17725;SDS011;8983;53.156;17.960;2023-06-26T13:49:37;5.35;;;2.78;;
17725;SDS011;8983;53.156;17.960;2023-06-26T13:52:06;2.80;;;2.60;;
17725;SDS011;8983;53.156;17.960;2023-06-26T13:54:35;4.20;;;2.83;;
17725;SDS011;8983;53.156;17.960;2023-06-26T13:57:03;3.10;;;2.83;;
17725;SDS011;8983;53.156;17.960;2023-06-26T13:59:32;3.10;;;2.80;;
17725;SDS011;8983;53.156;17.960;2023-06-26T14:02:03;2.88;;;2.40;;
17725;SDS011;8983;53.156;17.960;2023-06-26T14:04:34;3.25;;;2.85;;
17725;SDS011;8983;53.156;17.960;2023-06-26T14:07:03;2.70;;;2.50;;
17725;SDS011;8983;53.156;17.960;2023-06-26T14:09:32;3.50;;;2.63;;
17725;SDS011;8983;53.156;17.960;2023-06-26T14:12:00;2.72;;;2.45;;
17725;SDS011;8983;53.156;17.960;2023-06-26T14:14:28;3.38;;;2.88;;
17725;SDS011;8983;53.156;17.960;2023-06-26T14:16:57;3.50;;;2.60;;
17725;SDS011;8983;53.156;17.960;2023-06-26T14:19:25;2.63;;;2.40;;
17725;SDS011;8983;53.156;17.960;2023-06-26T14:21:55;2.60;;;2.40;;
17725;SDS011;8983;53.156;17.960;2023-06-26T14:24:23;2.58;;;2.35;;
17725;SDS011;8983;53.156;17.960;2023-06-26T14:26:52;2.85;;;2.55;;
17725;SDS011;8983;53.156;17.960;2023-06-26T14:29:20;2.80;;;2.40;;
17725;SDS011;8983;53.156;17.960;2023-06-26T14:31:48;2.42;;;2.15;;
17725;SDS011;8983;53.156;17.960;2023-06-26T14:34:17;5.15;;;2.40;;
17725;SDS011;8983;53.156;17.960;2023-06-26T14:36:46;2.53;;;2.30;;
17725;SDS011;8983;53.156;17.960;2023-06-26T14:39:15;3.38;;;2.28;;
17725;SDS011;8983;53.156;17.960;2023-06-26T14:41:44;3.22;;;2.72;;
17725;SDS011;8983;53.156;17.960;2023-06-26T14:44:14;3.47;;;2.55;;
17725;SDS011;8983;53.156;17.960;2023-06-26T14:46:43;2.50;;;2.30;;
17725;SDS011;8983;53.156;17.960;2023-06-26T14:49:11;3.83;;;2.83;;
17725;SDS011;8983;53.156;17.960;2023-06-26T14:51:39;2.63;;;2.42;;
17725;SDS011;8983;53.156;17.960;2023-06-26T14:54:07;2.30;;;2.10;;
17725;SDS011;8983;53.156;17.960;2023-06-26T14:56:37;2.45;;;2.20;;
17725;SDS011;8983;53.156;17.960;2023-06-26T14:59:05;2.55;;;2.33;;
17725;SDS011;8983;53.156;17.960;2023-06-26T15:01:34;2.30;;;2.10;;
17725;SDS011;8983;53.156;17.960;2023-06-26T15:04:02;3.75;;;2.20;;
17725;SDS011;8983;53.156;17.960;2023-06-26T15:06:30;2.60;;;2.40;;
17725;SDS011;8983;53.156;17.960;2023-06-26T15:08:59;3.63;;;2.20;;